Time;durP1;ratioP1;P1;durP2;ratioP2;P2;SDS_P1;SDS_P2;PMS_P1;PMS_P2;Temp;Humidity;BMP_temperature;BMP_pressure;BME280_temperature;BME280_humidity;BME280_pressure;Samples;Min_cycle;Max_cycle;Signal;HPM_P1;HPM_P2
2022/06/14 00:01:39;;;;;;;14.07;3.72;;;;;;;11.74;100.00;-5396.63;5093795;28;20031;-77
2022/06/14 00:04:06;;;;;;;10.77;3.90;;;;;;;11.71;100.00;-6054.00;5093712;28;20034;-77
2022/06/14 00:06:34;;;;;;;12.35;3.95;;;;;;;11.72;100.00;-7039.75;5094520;28;20096;-79
2022/06/14 00:09:00;;;;;;;11.95;4.10;;;;;;;11.67;100.00;-7039.78;5078431;28;20028;-78
2022/06/14 00:11:28;;;;;;;8.27;3.05;;;;;;;11.62;100.00;-7039.81;5093078;28;20020;-77
2022/06/14 00:13:55;;;;;;;10.10;3.90;;;;;;;11.53;100.00;-7368.28;5106410;28;20020;-77
2022/06/14 00:16:22;;;;;;;11.23;3.47;;;;;;;11.48;100.00;-9338.13;5092558;28;20278;-77
2022/06/14 00:18:48;;;;;;;11.93;3.22;;;;;;;11.51;100.00;-11635.19;5092865;28;20467;-77
2022/06/14 00:21:13;;;;;;;9.63;3.67;;;;;;;11.57;100.00;-12947.63;5094038;28;20046;-78
2022/06/14 00:23:39;;;;;;;10.98;3.50;;;;;;;11.58;100.00;-14259.34;5094078;28;20425;-78
2022/06/14 00:26:04;;;;;;;10.48;3.45;;;;;;;11.45;100.00;-14585.78;5094594;28;20036;-79
2022/06/14 00:28:33;;;;;;;12.13;3.03;;;;;;;11.42;100.00;-15568.53;5095246;28;20043;-79
2022/06/14 00:31:03;;;;;;;13.65;2.90;;;;;;;11.32;100.00;-17204.88;5088844;28;20028;-81
2022/06/14 00:33:36;;;;;;;10.68;3.00;;;;;;;11.40;100.00;-18843.34;5082452;28;20341;-80
2022/06/14 00:36:30;;;;;;;9.38;3.25;;;;;;;11.42;100.00;-20153.00;5095594;28;20061;-80
2022/06/14 00:39:04;;;;;;;8.95;3.03;;;;;;;11.36;100.00;-19497.22;5088246;28;20118;-80
2022/06/14 00:41:40;;;;;;;12.70;2.70;;;;;;;11.39;100.00;-19170.50;5077279;28;20055;-80
2022/06/14 00:44:18;;;;;;;9.00;2.70;;;;;;;11.35;100.00;-18842.31;5094485;28;20035;-81
2022/06/14 00:46:55;;;;;;;8.38;2.67;;;;;;;11.37;100.00;-19170.03;5093095;28;20088;-80
2022/06/14 00:49:49;;;;;;;8.98;2.58;;;;;;;11.35;100.00;-19497.03;5092749;28;20032;-79
2022/06/14 00:52:44;;;;;;;10.15;2.83;;;;;;;11.31;100.00;-20150.81;5063531;28;20143;-79
2022/06/14 00:55:15;;;;;;;8.38;3.08;;;;;;;11.36;100.00;-21787.44;5074490;28;20038;-75
2022/06/14 00:57:48;;;;;;;9.07;2.95;;;;;;;11.32;100.00;-23421.75;5074422;28;20096;-79
2022/06/14 01:00:20;;;;;;;7.72;2.55;;;;;;;11.31;100.00;-25055.81;5093781;28;20107;-79
2022/06/14 01:02:58;;;;;;;6.82;2.47;;;;;;;11.22;100.00;-25379.78;5091962;28;20118;-78
2022/06/14 01:06:05;;;;;;;6.68;2.40;;;;;;;11.24;100.00;-25382.44;5072232;28;20046;-77
2022/06/14 01:08:16;;;;;;;9.30;2.75;;;;;;;11.26;100.00;-25382.88;5095087;28;20032;-78
2022/06/14 01:10:47;;;;;;;9.82;2.67;;;;;;;11.20;100.00;-25381.13;5092161;28;20020;-78
2022/06/14 01:13:16;;;;;;;7.38;2.60;;;;;;;11.17;100.00;-25380.38;5085698;28;20074;-78
2022/06/14 01:15:42;;;;;;;6.38;2.92;;;;;;;11.16;100.00;-25380.09;5093802;28;20179;-77
2022/06/14 01:18:13;;;;;;;10.18;3.08;;;;;;;11.17;100.00;-25380.38;5094787;28;20055;-78
2022/06/14 01:20:39;;;;;;;10.27;3.65;;;;;;;11.11;100.00;-25378.78;5097623;28;20428;-77
2022/06/14 01:23:09;;;;;;;7.85;3.38;;;;;;;11.10;100.00;-25378.47;5094385;28;20027;-78
2022/06/14 01:25:49;;;;;;;8.40;2.92;;;;;;;11.14;100.00;-25379.50;5083327;28;20024;-78
2022/06/14 01:28:17;;;;;;;11.10;2.88;;;;;;;11.11;100.00;-25378.63;5097795;28;20541;-80
2022/06/14 01:30:47;;;;;;;10.15;3.05;;;;;;;11.12;100.00;-25378.91;5098393;28;20039;-80
2022/06/14 01:33:26;;;;;;;7.50;2.78;;;;;;;11.07;100.00;-25377.59;5097016;28;20024;-81
2022/06/14 01:35:56;;;;;;;10.00;2.55;;;;;;;10.96;100.00;-25374.38;5097925;28;20072;-81
2022/06/14 01:38:22;;;;;;;7.05;2.40;;;;;;;10.96;100.00;-25374.38;5097988;28;20072;-81
2022/06/14 01:41:05;;;;;;;7.53;2.58;;;;;;;10.96;100.00;-25374.38;5096764;28;20429;-81
2022/06/14 01:44:09;;;;;;;8.38;2.47;;;;;;;10.90;100.00;-25372.75;5094453;28;20020;-79
2022/06/14 01:46:54;;;;;;;6.68;2.60;;;;;;;10.74;100.00;-25368.22;5085705;28;20055;-80
2022/06/14 01:52:23;;;;;;;;;;;;;;;10.76;100.00;-25368.81;5116610;28;20498;-78
2022/06/14 01:54:55;;;;;;;8.50;2.58;;;;;;;10.75;100.00;-25368.38;5081961;28;20367;-79
2022/06/14 01:58:01;;;;;;;6.97;2.53;;;;;;;10.77;100.00;-25368.94;5077758;28;20024;-78
2022/06/14 02:00:40;;;;;;;6.95;2.67;;;;;;;10.72;100.00;-25367.47;5076623;28;20036;-79
2022/06/14 02:06:33;;;;;;;10.60;2.60;;;;;;;10.65;100.00;-25365.56;5115716;28;20097;-79
2022/06/14 02:09:22;;;;;;;11.23;3.53;;;;;;;10.60;100.00;-25364.13;5103197;28;20028;-78
2022/06/14 02:11:47;;;;;;;8.45;2.47;;;;;;;10.59;100.00;-25363.81;5095119;28;20111;-77
2022/06/14 02:14:24;;;;;;;6.93;2.78;;;;;;;10.54;100.00;-25362.34;5077359;28;20210;-80
2022/06/14 02:17:03;;;;;;;9.32;2.15;;;;;;;10.59;100.00;-25363.97;5090953;28;20035;-78
2022/06/14 02:19:35;;;;;;;5.37;2.20;;;;;;;10.62;100.00;-25364.69;5096906;28;20136;-78
2022/06/14 02:22:22;;;;;;;6.47;2.60;;;;;;;10.56;100.00;-25362.94;5097741;28;20027;-79
2022/06/14 02:24:57;;;;;;;8.25;2.83;;;;;;;10.55;100.00;-25362.63;5090045;28;20398;-81
2022/06/14 02:27:29;;;;;;;8.20;2.70;;;;;;;10.48;100.00;-25360.59;5098115;28;20024;-81
2022/06/14 02:30:16;;;;;;;9.40;2.85;;;;;;;10.47;100.00;-25360.44;5097400;28;20023;-80
2022/06/14 02:32:52;;;;;;;6.43;2.30;;;;;;;10.50;100.00;-25361.19;5096938;28;20103;-80
2022/06/14 02:35:24;;;;;;;4.55;2.17;;;;;;;10.50;100.00;-25361.19;5095550;28;20054;-79
2022/06/14 02:37:58;;;;;;;9.23;2.47;;;;;;;10.49;100.00;-25361.03;5096674;28;20092;-80
2022/06/14 02:40:35;;;;;;;10.98;2.90;;;;;;;10.39;100.00;-25358.25;5114269;28;20034;-78
2022/06/14 02:43:22;;;;;;;9.05;2.50;;;;;;;10.42;100.00;-25358.97;5096849;28;20065;-78
2022/06/14 02:45:53;;;;;;;6.43;2.45;;;;;;;10.41;100.00;-25358.69;5075694;28;20060;-79
2022/06/14 02:48:37;;;;;;;6.57;2.45;;;;;;;10.39;100.00;-25358.25;5075880;28;20086;-78
2022/06/14 02:51:05;;;;;;;7.93;2.40;;;;;;;10.35;100.00;-25357.06;5076418;28;20035;-80
2022/06/14 02:53:39;;;;;;;6.57;2.45;;;;;;;10.39;100.00;-25358.09;5077454;28;20024;-78
2022/06/14 02:56:19;;;;;;;6.07;2.40;;;;;;;10.37;100.00;-25357.66;5096409;28;20387;-80
2022/06/14 02:58:55;;;;;;;5.75;2.45;;;;;;;10.32;100.00;-25356.03;5096029;28;20110;-79
2022/06/14 03:01:27;;;;;;;6.28;2.33;;;;;;;10.32;100.00;-25356.19;5096067;28;20476;-80
2022/06/14 03:04:05;;;;;;;8.27;2.70;;;;;;;10.28;100.00;-25354.88;5091263;28;20077;-79
2022/06/14 03:06:42;;;;;;;7.53;2.50;;;;;;;10.31;100.00;-25355.75;5075692;28;20020;-79
2022/06/14 03:09:21;;;;;;;7.78;2.42;;;;;;;10.29;100.00;-25355.16;5076147;28;20032;-78
2022/06/14 03:12:16;;;;;;;9.50;2.83;;;;;;;10.27;100.00;-25354.72;5095615;28;20027;-78
2022/06/14 03:15:05;;;;;;;8.10;2.25;;;;;;;10.28;100.00;-25355.00;5073977;28;20039;-78
2022/06/14 03:17:39;;;;;;;8.05;2.72;;;;;;;10.28;100.00;-25354.88;5096244;28;20076;-80
2022/06/14 03:20:11;;;;;;;7.75;2.70;;;;;;;10.28;100.00;-25354.88;5095804;28;20047;-78
2022/06/14 03:22:43;;;;;;;7.25;2.38;;;;;;;10.27;100.00;-25354.56;5094853;28;20028;-78
2022/06/14 03:25:31;;;;;;;9.05;2.50;;;;;;;10.26;100.00;-25354.41;5093636;28;20145;-76
2022/06/14 03:28:04;;;;;;;10.18;2.70;;;;;;;10.21;100.00;-25353.09;5094581;28;20020;-77
2022/06/14 03:30:37;;;;;;;8.43;2.50;;;;;;;10.26;100.00;-25354.28;5095300;28;20058;-77
2022/06/14 03:33:43;;;;;;;9.65;2.90;;;;;;;10.31;100.00;-25355.88;5095002;28;20031;-75
2022/06/14 03:36:10;;;;;;;6.68;2.33;;;;;;;10.30;100.00;-25355.44;5090767;28;20148;-77
2022/06/14 03:38:41;;;;;;;8.98;2.97;;;;;;;10.35;100.00;-25356.94;5075709;28;20024;-77
2022/06/14 03:41:13;;;;;;;8.80;2.78;;;;;;;10.41;100.00;-25358.69;5093564;28;20063;-77
2022/06/14 03:43:41;;;;;;;8.68;2.63;;;;;;;10.42;100.00;-25358.97;5111908;27;20073;-75
2022/06/14 03:46:32;;;;;;;7.38;2.60;;;;;;;10.42;100.00;-25358.97;5094821;28;20020;-77
2022/06/14 03:49:14;;;;;;;5.35;2.58;;;;;;;10.51;100.00;-25361.47;5094861;28;20084;-79
2022/06/14 03:51:52;;;;;;;12.73;2.95;;;;;;;10.51;100.00;-25361.47;5094718;28;20491;-76
2022/06/14 03:54:45;;;;;;;7.80;2.92;;;;;;;10.56;100.00;-25363.09;5093128;28;20479;-75
2022/06/14 03:57:32;;;;;;;7.63;2.95;;;;;;;10.61;100.00;-25364.41;5094006;28;20028;-75
2022/06/14 04:00:04;;;;;;;7.80;2.80;;;;;;;10.71;100.00;-25367.34;5094014;28;20088;-77
2022/06/14 04:03:15;;;;;;;8.35;3.40;;;;;;;10.85;100.00;-25371.16;5094056;28;20035;-76
2022/06/14 04:06:00;;;;;;;;;;;;;;;10.98;100.00;-25374.81;5010021;28;20026;-80
2022/06/14 04:08:31;;;;;;;8.80;2.85;;;;;;;11.21;100.00;-25381.41;4995067;28;19914;-77
2022/06/14 04:11:29;;;;;;;8.35;3.03;;;;;;;11.51;100.00;-25390.06;5049230;28;20039;-80
2022/06/14 04:14:26;;;;;;;9.43;3.25;;;;;;;12.03;100.00;-25405.00;5075214;28;20059;-79
2022/06/14 04:17:08;;;;;;;6.72;3.03;;;;;;;12.63;100.00;-25421.81;5075137;28;20063;-80
2022/06/14 04:20:02;;;;;;;5.22;2.70;;;;;;;13.08;100.00;-25434.66;5074775;28;20097;-80
2022/06/14 04:22:51;;;;;;;8.73;2.90;;;;;;;13.27;100.00;-25440.22;5074149;28;20028;-77
2022/06/14 04:25:25;;;;;;;7.18;2.78;;;;;;;13.70;100.00;-25452.19;5076761;28;20515;-78
2022/06/14 04:28:06;;;;;;;5.70;2.85;;;;;;;14.12;100.00;-25464.16;5093911;28;20023;-78
2022/06/14 04:30:40;;;;;;;5.28;2.42;;;;;;;14.40;100.00;-25472.16;5078857;28;20024;-78
2022/06/14 04:33:28;;;;;;;5.90;2.88;;;;;;;15.21;100.00;-20887.50;5093996;28;20035;-79
2022/06/14 04:36:01;;;;;;;6.47;2.50;;;;;;;16.22;100.00;-13318.28;5093793;28;20089;-78
2022/06/14 04:38:35;;;;;;;4.53;2.70;;;;;;;17.18;100.00;3583.59;5077953;28;20038;-79
2022/06/14 04:41:08;;;;;;;6.88;2.92;;;;;;;17.67;100.00;33639.06;5088561;28;20540;-79
2022/06/14 04:43:44;;;;;;;5.65;2.78;;;;;;;18.10;100.00;71748.38;5092909;28;20031;-79
2022/06/14 04:46:14;;;;;;;6.85;2.85;;;;;;;18.67;100.00;144323.41;5093166;28;20038;-79
2022/06/14 04:48:44;;;;;;;7.38;2.92;;;;;;;18.82;100.00;147458.78;5093970;28;20054;-77
2022/06/14 04:51:33;;;;;;;6.65;2.50;;;;;;;20.04;100.00;147762.25;5087869;28;20742;-78
2022/06/14 04:54:33;;;;;;;8.15;2.20;;;;;;;20.42;100.00;147857.06;5096868;28;20377;-78
2022/06/14 04:57:05;;;;;;;6.22;2.50;;;;;;;21.24;100.00;148062.16;5096971;28;20027;-80
2022/06/14 04:59:37;;;;;;;6.18;2.40;;;;;;;21.62;100.00;148157.03;5096908;28;20520;-77
2022/06/14 05:02:14;;;;;;;7.95;2.45;;;;;;;22.01;100.00;148254.50;5097939;28;20019;-73
2022/06/14 05:05:21;;;;;;;6.93;2.67;;;;;;;21.73;100.00;148183.97;5096482;28;20069;-79
2022/06/14 05:07:53;;;;;;;6.55;2.33;;;;;;;21.90;100.00;148225.03;5047573;28;20063;-78
2022/06/14 05:10:26;;;;;;;5.82;2.58;;;;;;;21.58;100.00;148146.81;5095966;28;20092;-80
2022/06/14 05:13:07;;;;;;;5.90;2.35;;;;;;;22.27;100.00;148318.66;5091532;28;20446;-79
2022/06/14 05:15:41;;;;;;;6.18;2.33;;;;;;;21.64;100.00;148160.91;5077286;28;20061;-79
2022/06/14 05:18:26;;;;;;;7.05;2.38;;;;;;;20.40;100.00;147853.22;5077157;28;20502;-78
2022/06/14 05:21:05;;;;;;;5.47;2.20;;;;;;;18.89;100.00;147476.72;5093314;28;20039;-77
2022/06/14 05:23:36;;;;;;;6.93;2.63;;;;;;;18.92;100.00;147484.38;5096788;28;20440;-75
2022/06/14 05:26:02;;;;;;;6.15;2.30;;;;;;;18.39;100.00;147351.28;5091931;28;20036;-76
2022/06/14 05:28:59;;;;;;;6.50;2.08;;;;;;;17.85;100.00;147218.25;5101764;28;20028;-78
2022/06/14 05:31:46;;;;;;;6.60;2.25;;;;;;;17.40;100.00;147105.69;5074074;28;20399;-79
2022/06/14 05:34:45;;;;;;;7.65;2.00;;;;;;;17.39;100.00;147104.41;5077563;28;20028;-78
2022/06/14 05:37:36;;;;;;;6.90;2.13;;;;;;;17.47;100.00;147123.59;5034081;28;20043;-78
2022/06/14 05:40:18;;;;;;;8.35;1.90;;;;;;;17.80;100.00;147205.41;5089935;28;20444;-75
2022/06/14 05:42:51;;;;;;;6.85;2.00;;;;;;;19.40;100.00;147603.44;5093309;28;21028;-76
2022/06/14 05:45:18;;;;;;;6.75;1.90;;;;;;;19.49;100.00;147625.22;5095540;28;20039;-75
2022/06/14 05:47:54;;;;;;;5.43;1.80;;;;;;;19.76;100.00;147693.06;5083597;28;20028;-74
2022/06/14 05:50:28;;;;;;;6.00;1.70;;;;;;;18.87;100.00;147470.34;5075137;28;20451;-78
2022/06/14 05:53:05;;;;;;;7.35;2.17;;;;;;;18.53;100.00;147387.09;5075593;28;20476;-76
2022/06/14 05:55:47;;;;;;;5.88;2.22;;;;;;;18.11;100.00;147282.22;5083555;28;20077;-75
2022/06/14 05:58:42;;;;;;;6.75;1.80;;;;;;;17.63;100.00;147161.94;5096342;28;20058;-76
2022/06/14 06:01:28;;;;;;;7.22;1.98;;;;;;;17.48;100.00;147124.84;5061717;28;20407;-77
2022/06/14 06:04:11;;;;;;;5.80;1.90;;;;;;;17.51;100.00;147133.84;5074877;28;20024;-76
2022/06/14 06:06:49;;;;;;;5.18;1.80;;;;;;;17.34;100.00;147090.34;5076006;28;20107;-76
2022/06/14 06:09:19;;;;;;;6.75;1.77;;;;;;;17.13;100.00;147037.97;5092743;28;20036;-76
2022/06/14 06:11:53;;;;;;;8.88;1.80;;;;;;;17.19;100.00;147054.56;5077981;28;20108;-76
2022/06/14 06:14:44;;;;;;;5.82;1.65;;;;;;;16.96;100.00;146997.03;5095756;28;20101;-77
2022/06/14 06:17:17;;;;;;;5.90;1.88;;;;;;;17.19;100.00;147054.56;5072358;28;20040;-75
2022/06/14 06:20:13;;;;;;;6.38;1.90;;;;;;;17.51;100.00;147133.84;5075134;28;20677;-74
2022/06/14 06:22:50;;;;;;;5.88;2.33;;;;;;;17.36;100.00;147095.47;5074843;28;20051;-76
2022/06/14 06:25:23;;;;;;;6.60;2.03;;;;;;;17.40;100.00;147105.69;5086977;28;20035;-75
2022/06/14 06:28:00;;;;;;;7.05;2.25;;;;;;;17.12;100.00;147035.38;5095939;28;20091;-76
2022/06/14 06:30:33;;;;;;;7.72;2.25;;;;;;;16.72;100.00;146935.66;5094261;28;20118;-78
2022/06/14 06:32:59;;;;;;;7.90;2.05;;;;;;;16.77;100.00;146949.72;5095495;28;20431;-74
2022/06/14 06:35:34;;;;;;;6.07;1.92;;;;;;;16.99;100.00;147004.72;5095844;28;20047;-76
2022/06/14 06:38:19;;;;;;;8.43;2.10;;;;;;;16.64;100.00;146917.78;5094031;28;20027;-75
2022/06/14 06:43:40;;;;;;;6.47;2.13;;;;;;;17.68;100.00;147176.03;5061280;28;20104;-79
2022/06/14 06:46:12;;;;;;;6.38;2.28;;;;;;;18.44;100.00;147364.06;5094575;28;20066;-75
2022/06/14 06:48:51;;;;;;;5.95;2.05;;;;;;;18.29;100.00;147328.25;5113485;28;20027;-74
2022/06/14 06:51:23;;;;;;;5.85;2.00;;;;;;;18.09;100.00;147278.38;5094560;28;20442;-73
2022/06/14 06:54:07;;;;;;;7.07;2.10;;;;;;;18.21;100.00;147306.50;5094427;28;20057;-74
2022/06/14 06:56:43;;;;;;;6.05;1.85;;;;;;;19.04;100.00;147512.56;5077635;28;20035;-74
2022/06/14 06:59:21;;;;;;;4.25;1.65;;;;;;;18.95;100.00;147492.06;5094707;28;20023;-76
2022/06/14 07:01:48;;;;;;;6.95;2.13;;;;;;;19.06;100.00;147517.69;5094605;28;20031;-75
2022/06/14 07:05:02;;;;;;;8.00;2.30;;;;;;;18.93;100.00;147486.97;5094877;28;20127;-75
2022/06/14 07:07:15;;;;;;;6.45;2.17;;;;;;;19.84;100.00;147713.63;5112595;28;20054;-74
2022/06/14 07:10:08;;;;;;;5.70;1.75;;;;;;;20.94;100.00;147986.50;5094342;28;20026;-75
2022/06/14 07:13:00;;;;;;;6.38;1.92;;;;;;;21.45;100.00;148113.41;5093519;28;20032;-76
2022/06/14 07:15:41;;;;;;;4.65;1.58;;;;;;;23.33;100.00;148581.78;5089618;28;20061;-75
2022/06/14 07:18:27;;;;;;;5.38;2.08;;;;;;;24.11;100.00;148777.00;5094389;28;20030;-77
2022/06/14 07:21:04;;;;;;;4.80;1.88;;;;;;;24.89;100.00;148972.28;5093407;28;20044;-76
2022/06/14 07:23:55;;;;;;;5.53;1.75;;;;;;;22.87;100.00;148467.50;5094109;28;20126;-74
2022/06/14 07:26:32;;;;;;;6.13;2.00;;;;;;;22.42;100.00;148355.91;5093858;28;20024;-75
2022/06/14 07:29:29;;;;;;;5.90;1.92;;;;;;;22.52;100.00;148380.28;5093863;28;20054;-75
2022/06/14 07:32:00;;;;;;;7.00;2.67;;;;;;;23.16;100.00;148540.72;5093898;28;20028;-79
2022/06/14 07:34:26;;;;;;;6.43;2.03;;;;;;;24.28;100.00;148819.38;5093268;28;20115;-76
2022/06/14 07:37:01;;;;;;;4.55;1.90;;;;;;;24.50;100.00;148875.91;5093436;28;20020;-76
2022/06/14 07:39:37;;;;;;;7.43;1.90;;;;;;;25.00;100.00;148999.25;5093550;28;20463;-76
2022/06/14 07:42:14;;;;;;;5.15;1.70;;;;;;;24.96;100.00;148989.00;5093381;28;20035;-76
2022/06/14 07:44:59;;;;;;;4.50;1.75;;;;;;;24.61;100.00;148902.94;5093439;28;20020;-75
2022/06/14 07:47:50;;;;;;;3.97;1.63;;;;;;;24.56;100.00;148890.00;5093706;28;20019;-76
2022/06/14 07:50:35;;;;;;;5.22;1.67;;;;;;;23.99;100.00;148748.75;5094244;28;20086;-75
2022/06/14 07:53:25;;;;;;;4.10;1.65;;;;;;;24.15;100.00;148788.56;5094691;28;20317;-77
2022/06/14 07:55:55;;;;;;;7.15;1.90;;;;;;;24.25;100.00;148812.94;5093939;28;20034;-74
2022/06/14 07:58:26;;;;;;;;;;;;;;;24.05;100.00;148761.56;5095006;28;20080;-78
2022/06/14 08:01:10;;;;;;;5.20;1.50;;;;;;;23.53;100.00;148631.88;5094301;28;19911;-79
2022/06/14 08:03:59;;;;;;;4.07;1.50;;;;;;;24.67;100.00;148918.34;5095018;28;20091;-80
2022/06/14 08:06:43;;;;;;;5.70;2.03;;;;;;;24.11;100.00;148777.00;5093851;28;20035;-75
2022/06/14 08:09:24;;;;;;;6.30;1.70;;;;;;;23.41;100.00;148602.31;5091689;28;20390;-76
2022/06/14 08:11:53;;;;;;;6.68;2.03;;;;;;;23.71;100.00;148676.78;5093017;28;20035;-75
2022/06/14 08:14:32;;;;;;;6.60;2.22;;;;;;;23.78;100.00;148694.75;5093213;28;20146;-76
2022/06/14 08:16:59;;;;;;;6.00;2.03;;;;;;;23.41;100.00;148603.59;5092438;28;20569;-75
2022/06/14 08:19:42;;;;;;;5.20;1.73;;;;;;;23.65;100.00;148663.94;5093100;28;20047;-77
2022/06/14 08:22:15;;;;;;;4.55;1.77;;;;;;;23.74;100.00;148685.78;5093022;28;20024;-76
2022/06/14 08:24:47;;;;;;;6.57;1.90;;;;;;;24.27;100.00;148816.78;5092622;28;20024;-76
2022/06/14 08:27:20;;;;;;;5.18;1.83;;;;;;;24.43;100.00;148856.66;5091665;28;20039;-74
2022/06/14 08:30:27;;;;;;;5.65;2.42;;;;;;;23.98;100.00;148744.91;5091804;28;20074;-74
2022/06/14 08:33:04;;;;;;;5.45;2.05;;;;;;;23.17;100.00;148543.28;5088409;28;20035;-75
2022/06/14 08:35:40;;;;;;;4.88;2.20;;;;;;;23.16;100.00;148540.72;5093267;28;20118;-75
2022/06/14 08:38:14;;;;;;;4.97;1.98;;;;;;;22.68;100.00;148421.31;5092156;28;20065;-74
2022/06/14 08:40:53;;;;;;;5.13;2.10;;;;;;;23.59;100.00;148647.28;5092777;28;20046;-75
2022/06/14 08:43:29;;;;;;;5.47;2.20;;;;;;;23.06;100.00;148515.03;5092376;28;20067;-74
2022/06/14 08:46:19;;;;;;;6.82;2.17;;;;;;;24.38;100.00;148846.34;5092204;28;20020;-74
2022/06/14 08:49:08;;;;;;;6.55;2.20;;;;;;;23.93;100.00;148733.34;5092770;28;20073;-75
2022/06/14 08:51:42;;;;;;;5.15;2.03;;;;;;;24.81;100.00;148951.72;5091651;28;20035;-74
2022/06/14 08:54:35;;;;;;;6.32;2.22;;;;;;;23.36;100.00;148589.50;5092863;28;20020;-76
2022/06/14 08:57:09;;;;;;;5.95;2.20;;;;;;;23.67;100.00;148667.81;5092732;28;20031;-74
2022/06/14 09:00:12;;;;;;;7.40;2.03;;;;;;;24.21;100.00;148802.69;5091936;28;20168;-76
2022/06/14 09:02:58;;;;;;;6.15;2.30;;;;;;;23.22;100.00;148556.09;5092787;28;20033;-74
2022/06/14 09:05:41;;;;;;;6.97;2.78;;;;;;;24.47;100.00;148866.88;5091993;28;20070;-74
2022/06/14 09:08:19;;;;;;;6.85;2.38;;;;;;;24.03;100.00;148757.72;5092805;28;20073;-73
2022/06/14 09:11:02;;;;;;;5.18;2.40;;;;;;;22.53;100.00;148384.13;5092406;28;20089;-76
2022/06/14 09:14:06;;;;;;;6.03;2.70;;;;;;;22.32;100.00;148330.25;5092433;28;20032;-75
2022/06/14 09:16:40;;;;;;;5.68;2.28;;;;;;;22.20;100.00;148302.00;5092767;28;20036;-74
2022/06/14 09:19:24;;;;;;;6.40;2.70;;;;;;;21.99;100.00;148248.13;5092487;28;20024;-74
2022/06/14 09:22:07;;;;;;;5.18;2.40;;;;;;;21.02;100.00;148005.75;5092889;28;20035;-75
2022/06/14 09:24:53;;;;;;;6.95;2.47;;;;;;;20.39;100.00;147849.38;5092421;28;20387;-75
2022/06/14 09:28:06;;;;;;;5.35;2.50;;;;;;;20.52;100.00;147882.66;5093302;28;20023;-77
2022/06/14 09:31:00;;;;;;;5.93;2.67;;;;;;;20.23;100.00;147809.69;5093259;28;20020;-74
2022/06/14 09:33:41;;;;;;;7.72;3.30;;;;;;;20.66;100.00;147916.03;5092853;28;20034;-76
2022/06/14 09:36:28;;;;;;;6.70;2.97;;;;;;;20.04;100.00;147762.25;5093472;28;20031;-76
2022/06/14 09:38:59;;;;;;;8.45;3.13;;;;;;;20.33;100.00;147835.28;5092741;28;20032;-77
2022/06/14 09:41:56;;;;;;;6.93;3.00;;;;;;;20.30;100.00;147826.31;5096273;28;20489;-76
2022/06/14 09:44:21;;;;;;;6.60;2.20;;;;;;;19.68;100.00;147673.84;5096685;28;20023;-77
2022/06/14 09:47:17;;;;;;;5.10;2.65;;;;;;;19.19;100.00;147552.25;5096016;28;20547;-77
2022/06/14 09:50:19;;;;;;;7.63;2.80;;;;;;;19.27;100.00;147570.19;5096383;28;20530;-76
2022/06/14 09:52:51;;;;;;;8.27;3.22;;;;;;;19.05;100.00;147516.41;5096176;28;20030;-76
2022/06/14 09:56:09;;;;;;;6.85;3.10;;;;;;;19.14;100.00;147538.16;5095899;28;20023;-75
2022/06/14 09:58:49;;;;;;;6.28;2.97;;;;;;;19.05;100.00;147516.41;4975785;28;20525;-76
2022/06/14 10:01:53;;;;;;;6.82;2.50;;;;;;;19.31;100.00;147581.69;4976719;28;20092;-76
2022/06/14 10:04:37;;;;;;;9.25;3.08;;;;;;;19.21;100.00;147556.09;5076164;28;20027;-78
2022/06/14 10:07:33;;;;;;;6.60;2.63;;;;;;;19.22;100.00;147557.34;5096729;28;20015;-76
2022/06/14 10:10:18;;;;;;;8.18;3.10;;;;;;;18.76;100.00;147443.41;5096059;28;20031;-75
2022/06/14 10:13:22;;;;;;;7.82;2.90;;;;;;;18.60;100.00;147405.03;5095982;28;20467;-76
2022/06/14 10:16:00;;;;;;;9.65;3.35;;;;;;;19.59;100.00;147650.78;5046452;28;20042;-75
2022/06/14 10:18:25;;;;;;;5.53;2.58;;;;;;;19.97;100.00;147744.38;5098345;28;20033;-76
2022/06/14 10:20:54;;;;;;;6.00;2.80;;;;;;;19.81;100.00;147704.63;5096318;28;20043;-77
2022/06/14 10:23:42;;;;;;;6.95;2.65;;;;;;;19.68;100.00;147672.56;5096358;28;20123;-76
2022/06/14 10:29:06;;;;;;;7.20;2.80;;;;;;;20.37;100.00;147844.22;5115075;28;20034;-78
2022/06/14 10:31:51;;;;;;;6.15;3.10;;;;;;;20.47;100.00;147868.59;5094009;28;20468;-75
2022/06/14 10:34:23;;;;;;;7.07;2.72;;;;;;;20.37;100.00;147844.22;5095181;28;20028;-75
2022/06/14 10:37:29;;;;;;;6.00;2.88;;;;;;;21.02;100.00;148005.75;5094723;28;20089;-75
2022/06/14 10:40:20;;;;;;;7.45;2.80;;;;;;;21.13;100.00;148035.22;5095860;28;20142;-75
2022/06/14 10:43:12;;;;;;;4.63;2.55;;;;;;;21.69;100.00;148173.75;5094470;28;20040;-75
2022/06/14 10:45:40;;;;;;;7.82;3.00;;;;;;;21.07;100.00;148019.84;5094328;28;20511;-76
2022/06/14 10:48:24;;;;;;;5.15;3.00;;;;;;;20.90;100.00;147976.28;5095246;28;20463;-75
2022/06/14 10:51:02;;;;;;;6.80;3.03;;;;;;;20.19;100.00;147799.44;5093673;28;20039;-75
2022/06/14 10:53:43;;;;;;;5.40;2.80;;;;;;;19.93;100.00;147735.38;5095461;28;20031;-75
2022/06/14 10:56:25;;;;;;;5.93;3.10;;;;;;;20.36;100.00;147842.97;5095937;28;20554;-77
2022/06/14 10:59:32;;;;;;;6.95;3.00;;;;;;;20.77;100.00;147945.53;5095231;28;20027;-77
2022/06/14 11:02:00;;;;;;;7.55;3.30;;;;;;;21.03;100.00;148008.31;5048304;28;20046;-76
2022/06/14 11:04:40;;;;;;;6.53;2.92;;;;;;;21.80;100.00;148201.94;5094905;28;20055;-75
2022/06/14 11:07:16;;;;;;;5.55;2.90;;;;;;;22.11;100.00;148277.59;5113234;28;20028;-75
2022/06/14 11:10:00;;;;;;;8.40;3.40;;;;;;;22.00;100.00;148251.97;5094869;28;20027;-75
2022/06/14 11:12:57;;;;;;;6.88;2.65;;;;;;;22.06;100.00;148266.03;5098717;28;20059;-77
2022/06/14 11:15:32;;;;;;;5.43;2.30;;;;;;;22.39;100.00;148349.47;5096861;28;20031;-77
2022/06/14 11:18:19;;;;;;;6.13;2.90;;;;;;;20.94;100.00;147987.81;5094848;28;20027;-79
2022/06/14 11:20:58;;;;;;;7.75;3.30;;;;;;;21.22;100.00;148055.72;5095306;28;20043;-77
2022/06/14 11:23:37;;;;;;;6.10;3.00;;;;;;;21.56;100.00;148140.41;5101334;28;20035;-80
2022/06/14 11:26:19;;;;;;;5.45;2.65;;;;;;;22.11;100.00;148277.59;5095593;28;20110;-80
2022/06/14 11:28:52;;;;;;;5.28;2.85;;;;;;;21.28;100.00;148072.38;5096408;28;20020;-81
2022/06/14 11:31:32;;;;;;;6.30;3.13;;;;;;;21.30;100.00;148077.53;5094414;28;20031;-78
2022/06/14 11:34:42;;;;;;;5.53;3.00;;;;;;;20.94;100.00;147987.81;5093600;28;20095;-77
2022/06/14 11:37:36;;;;;;;7.53;3.20;;;;;;;21.13;100.00;148033.91;5094630;28;20036;-75
2022/06/14 11:40:17;;;;;;;5.25;2.83;;;;;;;20.90;100.00;147977.56;5093583;28;20081;-74
2022/06/14 11:42:54;;;;;;;4.93;3.00;;;;;;;20.26;100.00;147817.38;5093761;28;20063;-82
2022/06/14 11:45:37;;;;;;;4.30;2.78;;;;;;;20.35;100.00;147839.13;5094061;28;20031;-78
2022/06/14 11:48:30;;;;;;;6.35;2.72;;;;;;;20.47;100.00;147869.88;5093795;28;20075;-79
2022/06/14 11:51:22;;;;;;;6.53;2.22;;;;;;;21.31;100.00;148078.81;5094085;28;20035;-75
2022/06/14 11:54:23;;;;;;;5.80;2.75;;;;;;;21.79;100.00;148199.38;5094232;28;20084;-76
2022/06/14 11:56:57;;;;;;;7.63;2.92;;;;;;;22.30;100.00;148326.41;5040003;28;20034;-75
2022/06/14 11:59:56;;;;;;;6.32;3.08;;;;;;;22.18;100.00;148295.56;5094100;28;20031;-76
2022/06/14 12:02:28;;;;;;;4.72;2.90;;;;;;;21.91;100.00;148227.56;5092831;28;20107;-75
2022/06/14 12:05:07;;;;;;;6.90;3.08;;;;;;;22.21;100.00;148303.25;5093388;28;20065;-74
2022/06/14 12:07:37;;;;;;;5.82;2.90;;;;;;;23.09;100.00;148522.78;5093150;28;20031;-74
2022/06/14 12:10:27;;;;;;;5.60;2.80;;;;;;;22.18;100.00;148295.56;5092980;28;20464;-76
2022/06/14 12:13:32;;;;;;;5.82;3.08;;;;;;;21.39;100.00;148098.03;5093244;28;20061;-75
2022/06/14 12:16:11;;;;;;;6.90;3.10;;;;;;;22.07;100.00;148268.63;5092663;28;20035;-76
2022/06/14 12:18:41;;;;;;;6.25;3.10;;;;;;;22.35;100.00;148337.94;5092616;28;20051;-75
2022/06/14 12:21:23;;;;;;;6.20;3.38;;;;;;;22.60;100.00;148400.78;5092628;28;20044;-78
2022/06/14 12:23:57;;;;;;;4.47;2.67;;;;;;;22.09;100.00;148273.75;5092721;28;20052;-75
2022/06/14 12:26:34;;;;;;;6.63;2.70;;;;;;;21.25;100.00;148064.69;5092877;28;20448;-74
2022/06/14 12:29:05;;;;;;;5.90;3.00;;;;;;;20.94;100.00;147986.50;5093660;28;20035;-79